Time;durP1;ratioP1;P1;durP2;ratioP2;P2;SDS_P1;SDS_P2;PMS_P1;PMS_P2;Temp;Humidity;BMP_temperature;BMP_pressure;BME280_temperature;BME280_humidity;BME280_pressure;Samples;Min_cycle;Max_cycle;Signal;HPM_P1;HPM_P2
2022/07/05 00:02:18;;;;;;;6.05;4.13;;;;;;;13.73;100.00;102052.31;4985596;28;20045;-77
2022/07/05 00:04:47;;;;;;;4.80;3.70;;;;;;;13.70;100.00;102056.69;4998015;28;20046;-78
2022/07/05 00:07:19;;;;;;;4.60;3.63;;;;;;;13.67;100.00;102054.00;4989402;28;20046;-78
2022/07/05 00:09:51;;;;;;;4.32;3.92;;;;;;;13.65;100.00;102048.72;4989136;28;20034;-77
2022/07/05 00:12:25;;;;;;;4.75;3.85;;;;;;;13.61;100.00;102047.78;4963204;28;20055;-78
2022/07/05 00:14:54;;;;;;;5.30;3.78;;;;;;;13.59;100.00;102052.19;4977835;28;20378;-78
2022/07/05 00:17:23;;;;;;;4.00;3.70;;;;;;;13.55;100.00;102055.66;4988662;28;20049;-78
2022/07/05 00:19:51;;;;;;;6.18;3.40;;;;;;;13.54;100.00;102051.25;4974068;28;20042;-78
2022/07/05 00:22:20;;;;;;;4.93;3.40;;;;;;;13.53;100.00;102054.75;4985544;28;20389;-78
2022/07/05 00:24:48;;;;;;;4.07;3.10;;;;;;;13.52;100.00;102060.94;4983987;28;20273;-78
2022/07/05 00:27:16;;;;;;;6.50;3.53;;;;;;;13.52;100.00;102065.34;4960166;28;20407;-77
2022/07/05 00:29:45;;;;;;;5.72;3.42;;;;;;;13.49;100.00;102063.53;4960974;28;20073;-78
2022/07/05 00:32:14;;;;;;;3.65;3.30;;;;;;;13.48;100.00;102056.50;4988256;28;20395;-77
2022/07/05 00:34:42;;;;;;;7.47;3.95;;;;;;;13.47;100.00;102052.06;4979391;28;20069;-78
2022/07/05 00:37:12;;;;;;;5.53;3.15;;;;;;;13.47;100.00;102060.00;4985559;28;20050;-77
2022/07/05 00:39:40;;;;;;;3.67;2.80;;;;;;;13.47;100.00;102065.28;4982659;28;20042;-78
2022/07/05 00:42:10;;;;;;;5.15;3.38;;;;;;;13.46;100.00;102058.22;4959016;28;20034;-77
2022/07/05 00:44:41;;;;;;;4.95;3.65;;;;;;;13.45;100.00;102061.75;4979802;28;20054;-78
2022/07/05 00:47:12;;;;;;;7.13;4.07;;;;;;;13.46;100.00;102058.22;4984508;28;20038;-77
2022/07/05 00:49:42;;;;;;;8.20;3.75;;;;;;;13.46;100.00;102052.94;4976520;28;20038;-78
2022/07/05 00:52:11;;;;;;;4.53;4.00;;;;;;;13.48;100.00;102058.22;4987367;28;20039;-78
2022/07/05 00:54:49;;;;;;;6.32;4.57;;;;;;;13.51;100.00;102058.28;4983375;28;20271;-78
2022/07/05 00:57:20;;;;;;;5.53;5.03;;;;;;;13.52;100.00;102050.34;4993210;28;20054;-78
2022/07/05 00:59:50;;;;;;;4.90;3.75;;;;;;;13.55;100.00;102047.72;4921385;28;20261;-77
2022/07/05 01:02:19;;;;;;;5.40;3.92;;;;;;;13.58;100.00;102050.41;4981166;28;20058;-78
2022/07/05 01:04:50;;;;;;;3.60;3.30;;;;;;;13.59;100.00;102059.22;4941765;28;20054;-76
2022/07/05 01:07:21;;;;;;;5.05;3.50;;;;;;;13.61;100.00;102054.81;4952450;28;20038;-77
2022/07/05 01:09:50;;;;;;;8.00;3.60;;;;;;;13.62;100.00;102059.28;4977991;28;20340;-77
2022/07/05 01:12:18;;;;;;;4.25;3.72;;;;;;;13.62;100.00;102057.50;4969364;28;20039;-77
2022/07/05 01:14:48;;;;;;;7.40;3.13;;;;;;;13.64;100.00;102060.16;4932914;28;20047;-77
2022/07/05 01:17:17;;;;;;;3.90;3.53;;;;;;;13.64;100.00;102061.03;4978281;28;20053;-77
2022/07/05 01:19:45;;;;;;;4.43;3.55;;;;;;;13.65;100.00;102062.84;4968930;28;20263;-77
2022/07/05 01:22:19;;;;;;;4.55;3.30;;;;;;;13.67;100.00;102059.28;4948276;28;20504;-76
2022/07/05 01:24:49;;;;;;;4.47;3.25;;;;;;;13.65;100.00;102054.00;4964929;28;20271;-78
2022/07/05 01:27:19;;;;;;;8.48;3.65;;;;;;;13.63;100.00;102050.47;4967227;28;20041;-78
2022/07/05 01:29:48;;;;;;;4.82;4.07;;;;;;;13.61;100.00;102054.81;4937530;28;20054;-76
2022/07/05 01:32:17;;;;;;;3.20;2.88;;;;;;;13.56;100.00;102049.50;4951922;28;20038;-76
2022/07/05 01:34:47;;;;;;;4.82;4.20;;;;;;;13.55;100.00;102052.13;4965625;28;20674;-75
2022/07/05 01:37:16;;;;;;;5.20;4.05;;;;;;;13.51;100.00;102051.19;4956604;28;20423;-75
2022/07/05 01:39:45;;;;;;;4.07;3.75;;;;;;;13.45;100.00;102048.50;4973145;28;20152;-75
2022/07/05 01:42:13;;;;;;;4.68;3.78;;;;;;;13.41;100.00;102042.28;4937563;28;20404;-76
2022/07/05 01:44:42;;;;;;;6.85;4.25;;;;;;;13.37;100.00;102052.84;4943484;28;20058;-75
2022/07/05 01:47:11;;;;;;;6.60;3.60;;;;;;;13.30;100.00;102051.88;4967213;28;20039;-75
2022/07/05 01:49:43;;;;;;;3.55;3.25;;;;;;;13.27;100.00;102058.00;4967252;28;20047;-75
2022/07/05 01:52:13;;;;;;;4.20;3.85;;;;;;;13.25;100.00;102057.09;4961718;28;20523;-75
2022/07/05 01:54:43;;;;;;;4.18;3.67;;;;;;;13.25;100.00;102057.09;4964386;28;20129;-75
2022/07/05 01:57:12;;;;;;;5.88;4.03;;;;;;;13.24;100.00;102057.06;4968056;28;20042;-75
2022/07/05 01:59:41;;;;;;;5.03;3.88;;;;;;;13.23;100.00;102050.91;4952662;28;20055;-76
2022/07/05 02:02:09;;;;;;;6.90;3.70;;;;;;;13.22;100.00;102054.41;4938740;28;20031;-76
2022/07/05 02:04:38;;;;;;;5.28;3.63;;;;;;;13.21;100.00;102052.63;4963784;28;20373;-75
2022/07/05 02:07:10;;;;;;;6.03;4.43;;;;;;;13.19;100.00;102049.06;4957088;28;20043;-75
2022/07/05 02:09:41;;;;;;;5.75;4.18;;;;;;;13.18;100.00;102044.66;4956281;28;20047;-76
2022/07/05 02:12:09;;;;;;;4.38;3.97;;;;;;;13.15;100.00;102052.53;4981317;28;20046;-75
2022/07/05 02:14:38;;;;;;;5.35;3.55;;;;;;;13.09;100.00;102041.88;4978501;28;20046;-75
2022/07/05 02:17:12;;;;;;;5.47;3.80;;;;;;;13.04;100.00;102047.16;4966715;28;20057;-75
2022/07/05 02:19:42;;;;;;;5.28;4.35;;;;;;;13.01;100.00;102043.56;4961079;28;20384;-75
2022/07/05 02:22:12;;;;;;;5.00;4.47;;;;;;;12.95;100.00;102046.13;4982255;28;20035;-74
2022/07/05 02:24:40;;;;;;;5.68;4.00;;;;;;;12.90;100.00;102054.00;4964090;28;20045;-76
2022/07/05 02:27:18;;;;;;;5.65;3.63;;;;;;;12.87;100.00;102056.59;4954834;28;20057;-75
2022/07/05 02:29:48;;;;;;;7.07;4.53;;;;;;;12.85;100.00;102053.06;4963602;28;20248;-74
2022/07/05 02:32:20;;;;;;;7.55;3.88;;;;;;;12.82;100.00;102051.25;4927962;28;20038;-75
2022/07/05 02:34:49;;;;;;;4.75;4.10;;;;;;;12.81;100.00;102051.25;4954027;28;20331;-75
2022/07/05 02:37:18;;;;;;;5.55;4.75;;;;;;;12.79;100.00;102043.28;4969195;28;20054;-75
2022/07/05 02:39:46;;;;;;;5.05;3.38;;;;;;;12.77;100.00;102047.66;4955341;28;20054;-75
2022/07/05 02:42:16;;;;;;;4.93;4.35;;;;;;;12.77;100.00;102049.44;4950424;28;20062;-75
2022/07/05 02:44:45;;;;;;;6.60;5.40;;;;;;;12.75;100.00;102059.97;4946201;28;20070;-75
2022/07/05 02:47:15;;;;;;;6.20;4.80;;;;;;;12.75;100.00;102053.81;4948710;28;20045;-75
2022/07/05 02:49:43;;;;;;;5.38;4.85;;;;;;;12.71;100.00;102057.28;4967102;28;20038;-75
2022/07/05 02:52:11;;;;;;;4.78;4.38;;;;;;;12.66;100.00;102052.81;4939941;28;20046;-75
2022/07/05 02:54:41;;;;;;;5.45;3.90;;;;;;;12.63;100.00;102050.13;4939835;28;20054;-75
2022/07/05 02:57:10;;;;;;;5.03;3.83;;;;;;;12.62;100.00;102056.28;4962149;28;20065;-75
2022/07/05 02:59:39;;;;;;;7.13;4.22;;;;;;;12.61;100.00;102053.63;4962039;28;20519;-75
2022/07/05 03:02:07;;;;;;;4.60;4.20;;;;;;;12.61;100.00;102053.63;4994055;28;20050;-75
2022/07/05 03:04:38;;;;;;;4.85;3.97;;;;;;;12.60;100.00;102051.84;4934641;28;20038;-74
2022/07/05 03:07:07;;;;;;;7.30;4.40;;;;;;;12.59;100.00;102053.59;4982272;28;20404;-75
2022/07/05 03:09:35;;;;;;;4.55;4.03;;;;;;;12.59;100.00;102064.19;4943168;28;20054;-75
2022/07/05 03:12:05;;;;;;;4.65;4.25;;;;;;;12.59;100.00;102050.97;4934450;28;20070;-75
2022/07/05 03:14:35;;;;;;;5.13;4.72;;;;;;;12.55;100.00;102050.88;4947360;28;20042;-75
2022/07/05 03:17:04;;;;;;;5.97;4.75;;;;;;;12.51;100.00;102054.34;4968240;28;20050;-75
2022/07/05 03:19:32;;;;;;;6.55;4.97;;;;;;;12.47;100.00;102056.94;4926178;28;20063;-76
2022/07/05 03:22:02;;;;;;;7.28;5.30;;;;;;;12.44;100.00;102058.69;4965545;28;20399;-75
2022/07/05 03:24:31;;;;;;;10.07;4.90;;;;;;;12.42;100.00;102055.09;4959373;28;20050;-76
2022/07/05 03:26:59;;;;;;;12.25;5.25;;;;;;;12.39;100.00;102055.94;4946843;28;20261;-75
2022/07/05 03:29:28;;;;;;;5.80;4.88;;;;;;;12.37;100.00;102062.09;4933275;28;20038;-75
2022/07/05 03:31:56;;;;;;;5.43;4.93;;;;;;;12.35;100.00;102064.69;4947756;28;20160;-75
2022/07/05 03:34:27;;;;;;;9.13;5.25;;;;;;;12.36;100.00;102063.84;4938271;28;20043;-75
2022/07/05 03:36:57;;;;;;;7.40;5.03;;;;;;;12.38;100.00;102058.56;4944597;28;20047;-75
2022/07/05 03:39:26;;;;;;;5.57;5.00;;;;;;;12.40;100.00;102064.75;4950466;28;20051;-75
2022/07/05 03:41:55;;;;;;;5.28;4.65;;;;;;;12.41;100.00;102059.50;4972257;28;20260;-75
2022/07/05 03:44:27;;;;;;;7.03;5.35;;;;;;;12.42;100.00;102058.66;4975100;28;20046;-76
2022/07/05 03:46:56;;;;;;;6.65;4.93;;;;;;;12.44;100.00;102062.19;4954859;28;20258;-75
2022/07/05 03:49:24;;;;;;;7.85;5.30;;;;;;;12.45;100.00;102063.06;4975036;28;20400;-76
2022/07/05 03:51:53;;;;;;;5.55;4.90;;;;;;;12.44;100.00;102064.84;4995577;28;20054;-76
2022/07/05 03:54:21;;;;;;;9.63;5.10;;;;;;;12.42;100.00;102063.94;4979260;28;20038;-76
2022/07/05 03:56:50;;;;;;;6.57;4.97;;;;;;;12.43;100.00;102065.69;4964006;28;21061;-75
2022/07/05 03:59:18;;;;;;;5.95;4.57;;;;;;;12.45;100.00;102063.06;4948793;28;20049;-76
2022/07/05 04:01:49;;;;;;;4.93;4.53;;;;;;;12.47;100.00;102069.28;4961580;28;20252;-74
2022/07/05 04:04:19;;;;;;;5.88;4.47;;;;;;;12.57;100.00;102060.63;4934442;28;20031;-76
2022/07/05 04:06:49;;;;;;;5.70;4.90;;;;;;;12.70;100.00;102071.38;4955071;28;20276;-75
2022/07/05 04:09:18;;;;;;;6.00;5.50;;;;;;;12.76;100.00;102071.44;4970759;28;20480;-76
2022/07/05 04:11:46;;;;;;;7.35;5.22;;;;;;;12.92;100.00;102077.84;4952730;28;20490;-76
2022/07/05 04:14:15;;;;;;;6.10;4.43;;;;;;;13.48;100.00;102079.41;4965960;28;20035;-75
2022/07/05 04:16:43;;;;;;;5.88;4.05;;;;;;;14.17;100.00;102070.34;4925989;29;20054;-75
2022/07/05 04:19:12;;;;;;;3.60;3.30;;;;;;;14.89;100.00;102075.25;4965404;28;20058;-75
2022/07/05 04:21:41;;;;;;;5.07;3.65;;;;;;;15.73;100.00;102072.03;4930166;28;20063;-75
2022/07/05 04:24:10;;;;;;;4.15;3.33;;;;;;;16.52;100.00;102071.97;4951704;28;20056;-75
2022/07/05 04:26:41;;;;;;;3.97;2.40;;;;;;;17.35;100.00;102077.03;4976610;28;20047;-75
2022/07/05 04:29:10;;;;;;;4.47;2.45;;;;;;;18.16;100.00;102067.59;4967898;28;20536;-75
2022/07/05 04:31:40;;;;;;;3.92;2.85;;;;;;;18.85;100.00;102069.59;4970049;28;20053;-76
2022/07/05 04:34:08;;;;;;;3.95;2.67;;;;;;;19.15;100.00;102072.78;4975482;28;20046;-75
2022/07/05 04:36:40;;;;;;;4.30;2.70;;;;;;;18.75;100.00;102077.69;4916784;28;20030;-76
2022/07/05 04:39:10;;;;;;;3.10;2.35;;;;;;;18.37;100.00;102079.84;4970016;28;20046;-76
2022/07/05 04:41:44;;;;;;;6.13;2.90;;;;;;;18.81;100.00;102067.88;4979684;28;20316;-76
2022/07/05 04:44:13;;;;;;;3.22;2.92;;;;;;;19.42;99.74;102076.88;4972637;28;20062;-76
2022/07/05 04:46:42;;;;;;;5.13;2.35;;;;;;;20.01;98.14;102074.22;4979502;28;20243;-76
2022/07/05 04:49:11;;;;;;;3.20;2.95;;;;;;;20.43;95.40;102074.38;4971375;28;20039;-76
2022/07/05 04:51:42;;;;;;;3.63;2.53;;;;;;;20.76;93.15;102082.72;4957048;28;20283;-76
2022/07/05 04:54:17;;;;;;;4.82;2.60;;;;;;;20.34;91.22;102077.22;4961764;28;20035;-76
2022/07/05 04:56:45;;;;;;;5.15;2.70;;;;;;;20.40;91.34;102081.59;4964892;28;20051;-76
2022/07/05 04:59:14;;;;;;;3.30;2.20;;;;;;;20.92;91.02;102085.94;4990078;28;20078;-76
2022/07/05 05:01:42;;;;;;;4.50;2.20;;;;;;;21.52;89.13;102086.50;4969464;28;20396;-76
2022/07/05 05:04:11;;;;;;;6.95;2.50;;;;;;;22.09;87.15;102075.25;4968665;28;20606;-76
2022/07/05 05:06:39;;;;;;;4.07;2.20;;;;;;;22.57;85.98;102074.94;4979018;28;20043;-76
2022/07/05 05:09:07;;;;;;;2.63;2.40;;;;;;;23.02;83.32;102068.25;4935677;28;20156;-75
2022/07/05 05:11:36;;;;;;;3.92;2.10;;;;;;;23.32;81.74;102069.19;4968268;28;20049;-75
2022/07/05 05:14:04;;;;;;;7.20;3.00;;;;;;;23.66;79.09;102069.94;4965236;28;20070;-75
2022/07/05 05:16:33;;;;;;;1.75;1.65;;;;;;;23.93;78.29;102065.47;4970316;28;20051;-75
2022/07/05 05:19:02;;;;;;;2.53;1.90;;;;;;;24.12;75.82;102071.13;4947933;28;20039;-75
2022/07/05 05:21:30;;;;;;;2.28;1.98;;;;;;;24.33;74.11;102072.22;4971992;28;20058;-75
2022/07/05 05:23:59;;;;;;;4.40;1.90;;;;;;;24.56;72.81;102071.41;4909531;28;20051;-76
2022/07/05 05:26:27;;;;;;;2.97;2.10;;;;;;;24.80;71.70;102072.34;4963510;28;20054;-75
2022/07/05 05:28:56;;;;;;;3.15;1.73;;;;;;;24.98;70.31;102069.88;4967142;28;20055;-76
2022/07/05 05:31:24;;;;;;;2.65;1.58;;;;;;;25.09;67.64;102073.91;4988434;28;20046;-75
2022/07/05 05:33:53;;;;;;;3.72;1.80;;;;;;;25.24;66.85;102068.91;4978902;28;20050;-75
2022/07/05 05:36:21;;;;;;;3.63;1.63;;;;;;;25.36;66.07;102076.50;4961417;28;20138;-75
2022/07/05 05:38:49;;;;;;;2.03;1.58;;;;;;;25.49;64.10;102066.97;4925153;28;20157;-75
2022/07/05 05:41:18;;;;;;;4.43;1.75;;;;;;;25.56;62.96;102074.81;4982782;28;20046;-75
2022/07/05 05:43:47;;;;;;;3.40;2.08;;;;;;;25.61;62.14;102086.31;4970287;28;20287;-75
2022/07/05 05:46:18;;;;;;;2.05;1.60;;;;;;;25.67;62.05;102076.16;4973658;28;20038;-75
2022/07/05 05:48:47;;;;;;;6.60;1.70;;;;;;;25.60;60.67;102085.44;4947104;28;20407;-76
2022/07/05 05:51:17;;;;;;;2.58;1.50;;;;;;;25.36;60.91;102083.72;4964226;28;20177;-75
2022/07/05 05:53:47;;;;;;;2.60;1.80;;;;;;;24.93;61.41;102088.91;4974064;28;20043;-74
2022/07/05 05:56:24;;;;;;;2.35;1.50;;;;;;;24.80;62.81;102087.59;4979204;28;20404;-75
2022/07/05 05:58:54;;;;;;;2.60;1.53;;;;;;;24.88;62.45;102088.22;4973908;28;20554;-75
2022/07/05 06:01:23;;;;;;;5.68;2.22;;;;;;;24.62;60.90;102094.56;4954071;28;20055;-75
2022/07/05 06:03:52;;;;;;;4.70;1.40;;;;;;;24.07;60.83;102094.66;4964183;28;20046;-76
2022/07/05 06:06:21;;;;;;;2.92;1.60;;;;;;;23.53;62.11;102096.34;4990400;28;20042;-75
2022/07/05 06:08:49;;;;;;;3.25;1.63;;;;;;;23.18;63.46;102090.25;4955072;28;20038;-76
2022/07/05 06:11:17;;;;;;;3.08;1.50;;;;;;;22.71;64.83;102098.72;4936158;28;20039;-79
2022/07/05 06:13:46;;;;;;;6.28;2.17;;;;;;;22.39;66.96;102088.84;4942831;28;20397;-78
2022/07/05 06:16:14;;;;;;;3.70;1.73;;;;;;;22.20;69.80;102091.97;4959828;28;20046;-80
2022/07/05 06:18:43;;;;;;;4.63;2.10;;;;;;;22.22;69.58;102099.13;4959818;28;20039;-79
2022/07/05 06:21:12;;;;;;;4.43;1.63;;;;;;;22.25;69.21;102102.66;4997659;28;20645;-80
2022/07/05 06:23:40;;;;;;;2.58;1.48;;;;;;;22.14;70.19;102096.66;4965485;28;20046;-82
2022/07/05 06:26:09;;;;;;;4.50;1.73;;;;;;;22.23;70.60;102106.25;4930566;28;20524;-79
2022/07/05 06:28:37;;;;;;;4.00;1.60;;;;;;;22.36;69.70;102111.31;4951030;28;20499;-79
2022/07/05 06:31:06;;;;;;;3.67;1.60;;;;;;;22.32;68.73;102106.03;4949886;28;20035;-80
2022/07/05 06:33:34;;;;;;;4.38;1.42;;;;;;;22.08;69.10;102100.38;4947043;28;20062;-79
2022/07/05 06:36:03;;;;;;;2.00;1.33;;;;;;;22.13;69.98;102114.53;4931901;28;20261;-79
2022/07/05 06:38:32;;;;;;;4.75;1.88;;;;;;;22.10;69.30;102103.00;4966192;28;20057;-79
2022/07/05 06:41:01;;;;;;;5.22;1.45;;;;;;;21.86;70.14;102105.38;4952699;28;20055;-79
2022/07/05 06:43:38;;;;;;;4.65;1.42;;;;;;;21.50;70.45;102117.84;4935932;28;20393;-79
2022/07/05 06:46:12;;;;;;;6.13;1.48;;;;;;;21.23;72.45;102109.44;4975372;28;20149;-79
2022/07/05 06:48:40;;;;;;;3.65;1.45;;;;;;;21.11;72.38;102109.69;4956889;28;20062;-78
2022/07/05 06:51:09;;;;;;;7.25;1.30;;;;;;;20.71;72.98;102113.16;4964137;28;20081;-78
2022/07/05 06:53:37;;;;;;;5.07;1.35;;;;;;;20.40;74.52;102114.59;4965231;28;20046;-77
2022/07/05 06:56:07;;;;;;;4.05;1.00;;;;;;;20.23;75.73;102109.53;4932729;28;20031;-78
2022/07/05 06:58:38;;;;;;;3.40;1.10;;;;;;;20.20;76.82;102109.56;4934229;28;20047;-79
2022/07/05 07:01:06;;;;;;;5.07;1.15;;;;;;;20.30;77.13;102115.63;4973190;28;20335;-79
2022/07/05 07:03:46;;;;;;;5.85;1.10;;;;;;;20.33;76.31;102115.59;4957559;28;20050;-79
2022/07/05 07:06:37;;;;;;;5.28;1.40;;;;;;;20.31;77.61;102117.41;4970521;28;20058;-78
2022/07/05 07:09:21;;;;;;;4.57;1.23;;;;;;;20.42;78.15;102109.22;4931490;28;20055;-79
2022/07/05 07:11:50;;;;;;;2.28;1.02;;;;;;;20.44;76.91;102118.97;4940041;28;20046;-79
2022/07/05 07:14:18;;;;;;;8.88;1.20;;;;;;;20.43;76.65;102106.50;4937502;28;20047;-78
2022/07/05 07:16:47;;;;;;;4.07;1.25;;;;;;;20.39;76.06;102112.81;4977347;28;20120;-81
2022/07/05 07:19:16;;;;;;;4.80;1.48;;;;;;;20.31;75.10;102124.56;4953448;28;20267;-79
2022/07/05 07:21:45;;;;;;;2.93;1.07;;;;;;;20.20;75.67;102125.63;4959524;28;20522;-79
2022/07/05 07:24:14;;;;;;;2.45;0.93;;;;;;;20.18;75.63;102126.56;4933206;28;20543;-79
2022/07/05 07:29:35;;;;;;;2.10;1.05;;;;;;;20.22;73.10;102128.28;4947736;28;20042;-79
2022/07/05 07:32:05;;;;;;;2.53;1.33;;;;;;;20.30;72.63;102130.81;4957664;28;20517;-79
2022/07/05 07:34:34;;;;;;;3.65;0.90;;;;;;;20.39;72.94;102128.00;4953060;28;20544;-78
2022/07/05 07:37:03;;;;;;;4.80;1.23;;;;;;;20.35;72.50;102134.31;4958650;28;20617;-79
2022/07/05 07:39:32;;;;;;;1.60;0.90;;;;;;;20.28;72.58;102129.97;4989521;28;20417;-79
2022/07/05 07:42:01;;;;;;;1.73;0.88;;;;;;;20.21;73.34;102130.09;4968880;28;20055;-78
2022/07/05 07:44:30;;;;;;;4.63;0.98;;;;;;;20.13;75.02;102137.38;4901017;28;20491;-79
2022/07/05 07:46:58;;;;;;;4.30;0.90;;;;;;;20.19;75.80;102134.56;4991604;28;20739;-79
2022/07/05 07:49:32;;;;;;;3.70;0.90;;;;;;;20.18;74.33;102138.16;4947575;28;20042;-78
2022/07/05 07:52:02;;;;;;;3.13;1.02;;;;;;;20.08;73.54;102144.56;4948787;28;20043;-78
2022/07/05 07:54:30;;;;;;;3.83;1.30;;;;;;;20.02;73.42;102139.31;4963533;28;20046;-79
2022/07/05 07:57:05;;;;;;;3.47;1.13;;;;;;;19.90;74.14;102136.81;4975847;28;20139;-78
2022/07/05 07:59:34;;;;;;;5.97;0.90;;;;;;;19.74;74.77;102142.41;4936995;28;20042;-79
2022/07/05 08:02:03;;;;;;;3.13;1.02;;;;;;;19.83;75.61;102141.41;4989652;28;20067;-78
2022/07/05 08:04:31;;;;;;;6.32;0.88;;;;;;;19.94;74.03;102135.88;4965496;28;20070;-78
2022/07/05 08:07:00;;;;;;;2.05;1.02;;;;;;;19.98;74.77;102134.91;4940215;28;20065;-77
2022/07/05 08:09:28;;;;;;;3.70;1.25;;;;;;;20.01;75.38;102132.19;4965074;28;20047;-78
2022/07/05 08:11:57;;;;;;;3.63;1.00;;;;;;;20.09;75.36;102135.63;4985900;28;20065;-78
2022/07/05 08:14:24;;;;;;;1.42;0.85;;;;;;;20.02;74.56;102142.00;4965324;28;20061;-78
2022/07/05 08:16:52;;;;;;;3.35;0.80;;;;;;;19.94;75.85;102151.91;4966112;28;20054;-78
2022/07/05 08:22:08;;;;;;;3.80;1.10;;;;;;;19.62;74.65;102150.56;4954063;28;20054;-77
2022/07/05 08:24:41;;;;;;;3.22;1.20;;;;;;;19.50;75.39;102150.72;4961615;28;20043;-77
2022/07/05 08:27:11;;;;;;;2.35;0.93;;;;;;;19.39;75.37;102148.19;4989970;28;20598;-78
2022/07/05 08:29:39;;;;;;;3.92;0.90;;;;;;;19.36;76.38;102137.56;4959407;28;20051;-76
2022/07/05 08:32:10;;;;;;;3.08;1.05;;;;;;;19.46;75.84;102141.88;4942431;28;20192;-77
2022/07/05 08:34:39;;;;;;;2.08;0.90;;;;;;;19.56;75.85;102143.50;4962721;28;20050;-77
2022/07/05 08:37:08;;;;;;;3.20;1.17;;;;;;;19.69;75.74;102144.22;4928342;28;20084;-77
2022/07/05 08:39:43;;;;;;;2.17;0.80;;;;;;;19.74;73.10;102150.44;4958538;28;20504;-79
2022/07/05 08:42:12;;;;;;;3.72;0.93;;;;;;;19.84;73.35;102145.81;4970025;28;20043;-79
2022/07/05 08:44:43;;;;;;;3.00;0.90;;;;;;;19.97;73.36;102135.81;4998416;28;20043;-79
2022/07/05 08:47:15;;;;;;;2.33;1.00;;;;;;;20.05;74.57;102139.25;4939477;28;20070;-80
2022/07/05 08:49:45;;;;;;;3.97;0.95;;;;;;;20.07;72.57;102148.13;4943004;28;20043;-79
2022/07/05 08:52:15;;;;;;;1.58;1.00;;;;;;;20.09;72.96;102143.66;4925413;28;20047;-79
2022/07/05 08:54:46;;;;;;;4.82;0.80;;;;;;;20.15;72.99;102154.28;4972045;28;20050;-80
2022/07/05 08:57:15;;;;;;;3.88;1.00;;;;;;;20.19;73.33;102155.13;4981352;28;20351;-78
2022/07/05 08:59:44;;;;;;;2.42;1.05;;;;;;;20.12;70.85;102159.66;4993288;28;20404;-76
2022/07/05 09:02:16;;;;;;;2.40;1.00;;;;;;;19.86;69.01;102162.72;4930891;28;20039;-77
2022/07/05 09:04:45;;;;;;;3.08;1.10;;;;;;;19.65;69.15;102172.78;4961580;28;20039;-77
2022/07/05 09:07:17;;;;;;;4.72;1.13;;;;;;;19.43;70.39;102173.97;4947468;28;21139;-78
2022/07/05 09:09:51;;;;;;;2.35;1.15;;;;;;;19.37;72.31;102174.06;4990084;28;20066;-77
2022/07/05 09:12:20;;;;;;;5.30;1.17;;;;;;;19.38;72.95;102176.72;4957637;28;20074;-77
2022/07/05 09:14:54;;;;;;;3.53;1.33;;;;;;;19.32;73.98;102179.47;4958458;28;20509;-76
2022/07/05 09:17:26;;;;;;;3.95;1.20;;;;;;;19.29;75.38;102172.34;4957603;28;20062;-76
2022/07/05 09:20:13;;;;;;;2.70;1.17;;;;;;;19.39;76.89;102170.44;4933187;28;20050;-76
2022/07/05 09:22:43;;;;;;;4.90;1.35;;;;;;;19.48;75.91;102169.47;4947329;28;20039;-76
2022/07/05 09:25:20;;;;;;;4.78;1.33;;;;;;;19.51;75.44;102158.75;4969244;28;20158;-77
2022/07/05 09:27:54;;;;;;;2.75;1.02;;;;;;;19.57;76.08;102164.00;4965622;28;20038;-77
2022/07/05 09:30:30;;;;;;;6.35;1.30;;;;;;;19.66;75.51;102169.22;4969791;28;20046;-77
2022/07/05 09:33:06;;;;;;;1.52;1.10;;;;;;;19.80;73.10;102162.81;4965377;28;20689;-78
2022/07/05 09:35:43;;;;;;;3.70;1.25;;;;;;;19.84;72.67;102175.25;4935168;28;20042;-77
2022/07/05 09:38:22;;;;;;;7.68;1.50;;;;;;;19.80;72.53;102173.53;4945564;28;20591;-77
2022/07/05 09:40:55;;;;;;;3.22;0.95;;;;;;;19.82;73.76;102177.06;4961642;28;20043;-76
2022/07/05 09:43:26;;;;;;;4.68;1.10;;;;;;;19.83;74.16;102174.38;4964878;28;20050;-77
2022/07/05 09:46:02;;;;;;;3.25;1.30;;;;;;;19.90;74.73;102179.63;4962927;28;20059;-77
2022/07/05 09:48:33;;;;;;;3.28;1.23;;;;;;;19.95;73.92;102180.44;4962633;28;20050;-77
2022/07/05 09:51:13;;;;;;;3.97;1.42;;;;;;;19.95;73.27;102184.00;4927945;28;20709;-76
2022/07/05 09:54:02;;;;;;;7.38;1.25;;;;;;;19.93;74.62;102188.50;4945745;28;20272;-77
2022/07/05 09:56:48;;;;;;;2.97;1.15;;;;;;;19.89;75.48;102193.91;4946373;28;20054;-77
2022/07/05 09:59:21;;;;;;;2.45;1.00;;;;;;;19.81;75.81;102197.59;4961821;28;20153;-76
2022/07/05 10:01:51;;;;;;;5.10;1.15;;;;;;;19.71;76.85;102200.38;4949320;28;20049;-77
2022/07/05 10:04:20;;;;;;;1.55;1.00;;;;;;;19.57;77.66;102197.88;4969322;28;20054;-77
2022/07/05 10:06:49;;;;;;;5.75;1.30;;;;;;;19.47;78.26;102198.00;4929388;28;20061;-77
2022/07/05 10:09:18;;;;;;;5.28;1.08;;;;;;;19.43;78.77;102196.28;4955255;28;20054;-77
2022/07/05 10:11:47;;;;;;;4.95;1.30;;;;;;;19.48;78.74;102189.06;4992078;28;20039;-77
2022/07/05 10:14:18;;;;;;;2.83;0.90;;;;;;;19.61;78.91;102180.88;4961939;28;20268;-77
2022/07/05 10:16:54;;;;;;;5.45;1.40;;;;;;;19.71;79.06;102185.19;4966581;28;20058;-77
2022/07/05 10:19:28;;;;;;;5.18;1.08;;;;;;;19.72;77.07;102183.44;4981438;28;20034;-77
2022/07/05 10:21:57;;;;;;;3.92;1.08;;;;;;;19.71;76.98;102195.88;4934802;28;20396;-77
2022/07/05 10:24:44;;;;;;;4.32;1.20;;;;;;;19.68;76.07;102187.94;4958498;28;20042;-78
2022/07/05 10:27:14;;;;;;;3.58;1.40;;;;;;;19.68;77.24;102195.94;4961266;28;20256;-78
2022/07/05 10:29:43;;;;;;;2.92;1.05;;;;;;;19.76;76.99;102194.09;4964967;28;20043;-78
2022/07/05 10:32:14;;;;;;;2.40;1.10;;;;;;;19.84;76.01;102197.53;4957120;28;20050;-78
2022/07/05 10:34:46;;;;;;;6.10;1.17;;;;;;;19.90;74.47;102201.91;4984677;28;20047;-78
2022/07/05 10:37:29;;;;;;;2.83;0.95;;;;;;;19.86;74.04;102190.34;4925878;28;20047;-78
2022/07/05 10:40:00;;;;;;;1.92;0.77;;;;;;;19.81;74.51;102200.25;4949122;28;20048;-78
2022/07/05 10:42:41;;;;;;;7.03;1.20;;;;;;;19.73;74.62;102201.25;4959274;28;20051;-78
2022/07/05 10:45:33;;;;;;;5.05;1.45;;;;;;;19.75;74.68;102200.31;4963449;28;20054;-77
2022/07/05 10:48:19;;;;;;;1.40;0.90;;;;;;;19.79;76.03;102207.44;4957038;28;20352;-78
2022/07/05 10:51:16;;;;;;;3.45;1.38;;;;;;;19.84;76.28;102207.34;4906994;28;20043;-77
2022/07/05 10:53:44;;;;;;;1.75;1.08;;;;;;;19.89;77.64;102210.84;4952347;28;20058;-76
2022/07/05 10:56:14;;;;;;;4.68;1.10;;;;;;;20.03;77.96;102210.63;4957239;28;20173;-78
2022/07/05 10:58:45;;;;;;;4.43;1.30;;;;;;;20.10;78.04;102203.41;4956396;28;20065;-77
2022/07/05 11:01:19;;;;;;;3.60;1.17;;;;;;;20.19;78.33;102209.50;4964145;28;20424;-77
2022/07/05 11:04:10;;;;;;;2.10;1.00;;;;;;;20.25;77.05;102197.81;4965022;28;20082;-78
2022/07/05 11:06:39;;;;;;;4.20;1.30;;;;;;;20.22;75.32;102209.44;4937169;28;20050;-77
2022/07/05 11:09:10;;;;;;;1.88;1.00;;;;;;;20.11;74.51;102200.69;4995763;28;20432;-77
2022/07/05 11:11:47;;;;;;;1.48;0.73;;;;;;;20.13;74.92;102204.25;4954946;28;20035;-82
2022/07/05 11:14:37;;;;;;;2.47;1.20;;;;;;;20.20;74.10;102200.56;4966414;28;20053;-78
2022/07/05 11:17:11;;;;;;;4.95;1.02;;;;;;;20.45;76.74;102200.16;4960043;28;20257;-78
2022/07/05 11:20:01;;;;;;;10.40;2.25;;;;;;;20.64;76.61;102199.00;4945624;28;20032;-78
2022/07/05 11:22:30;;;;;;;3.33;1.20;;;;;;;20.83;77.61;102202.22;4954972;28;20047;-79
2022/07/05 11:25:00;;;;;;;2.78;1.20;;;;;;;21.03;77.54;102199.16;4965303;28;20596;-77
2022/07/05 11:27:29;;;;;;;6.22;1.20;;;;;;;21.20;76.17;102201.53;4988440;28;20046;-76
2022/07/05 11:29:58;;;;;;;3.97;1.10;;;;;;;21.00;75.28;102209.06;4957399;28;20161;-76
2022/07/05 11:32:29;;;;;;;3.13;1.10;;;;;;;20.84;76.13;102206.66;4966079;28;20050;-75
2022/07/05 11:35:18;;;;;;;5.93;1.25;;;;;;;20.81;77.16;102204.06;4951578;28;20252;-77
2022/07/05 11:38:03;;;;;;;2.08;0.90;;;;;;;20.79;75.70;102215.69;4925199;28;20047;-75
2022/07/05 11:40:55;;;;;;;5.95;0.93;;;;;;;20.55;77.32;102222.34;4958058;28;20046;-76
2022/07/05 11:43:28;;;;;;;4.95;0.90;;;;;;;20.27;78.18;102221.91;4969957;28;20043;-76
2022/07/05 11:46:00;;;;;;;7.47;1.08;;;;;;;20.11;79.57;102215.88;4955434;28;20047;-76